^^
Station Historical Data
Daily Summary for April 2, 2017 Units:  English    Metric   Both
« Previous Day
Next Day »
Daily Weekly Monthly Yearly Custom
  High: Low: Average:
Temperature: 62.7 °F 34.0 °F 49.4 °F
Dew Point: 36.5 °F 30.1 °F 33.8 °F
Humidity: 88 % 33 % 58 %
Wind Speed: 13.2 mph 0.0 mph 2.9 mph
Wind Gust: 18.4 mph - -
Wind:- - WNW
Pressure: 30.21 in 30.07 in -
Precipitation: 0.00 in    
Historical Graphs
 
 
Tabular Data for April 2, 2017
Time Temperature Dew Point Pressure Wind Wind Speed Wind Gust Humidity Rainfall Rate (Hourly) solar Conditions
00:03 42.6 °F 35.2 °F 30.11 in WNW 1.8 mph 10.0 mph 75 % 0.00 in 0.0 W/m2 RA
00:08 42.5 °F 35.5 °F 30.11 in WNW 1.7 mph 4.0 mph 76 % 0.00 in 0.0 W/m2 RA
00:13 42.5 °F 35.5 °F 30.11 in NW 2.8 mph 4.6 mph 76 % 0.00 in 0.0 W/m2 CLR
00:18 42.5 °F 35.5 °F 30.11 in NNW 2.9 mph 4.6 mph 76 % 0.00 in 0.0 W/m2 CLR
00:23 42.6 °F 35.6 °F 30.11 in NNW 5.4 mph 9.2 mph 76 % 0.00 in 0.0 W/m2 CLR
00:28 42.6 °F 35.6 °F 30.11 in NNW 0.3 mph 1.2 mph 76 % 0.00 in 0.0 W/m2 CLR
00:33 42.7 °F 35.7 °F 30.11 in Calm     76 % 0.00 in 0.0 W/m2 CLR
00:38 42.6 °F 35.6 °F 30.11 in Calm     76 % 0.00 in 0.0 W/m2 CLR
00:43 42.6 °F 35.6 °F 30.11 in Calm     76 % 0.00 in 0.0 W/m2 CLR
00:48 42.5 °F 35.5 °F 30.11 in Calm   2.3 mph 76 % 0.00 in 0.0 W/m2 CLR
00:53 42.5 °F 35.5 °F 30.11 in NW 1.0 mph 3.5 mph 76 % 0.00 in 0.0 W/m2 CLR
00:58 42.5 °F 35.5 °F 30.11 in WNW 4.4 mph 6.9 mph 76 % 0.00 in 0.0 W/m2 CLR
01:03 42.6 °F 35.6 °F 30.12 in NW 1.2 mph 3.5 mph 76 % 0.00 in 0.0 W/m2 CLR
01:08 42.6 °F 35.6 °F 30.12 in WNW 1.0 mph 4.0 mph 76 % 0.00 in 0.0 W/m2 CLR
01:13 42.6 °F 35.6 °F 30.11 in WNW 2.8 mph 7.0 mph 76 % 0.00 in 0.0 W/m2 CLR
01:18 42.6 °F 35.6 °F 30.12 in WNW 3.1 mph 9.2 mph 76 % 0.00 in 0.0 W/m2 CLR
01:23 42.5 °F 35.5 °F 30.12 in NW 6.2 mph 11.5 mph 76 % 0.00 in 0.0 W/m2 CLR
01:28 42.5 °F 35.5 °F 30.12 in NW 4.0 mph 8.0 mph 76 % 0.00 in 0.0 W/m2 CLR
01:33 42.5 °F 35.5 °F 30.12 in WNW 3.6 mph 5.8 mph 76 % 0.00 in 0.0 W/m2 CLR
01:38 42.4 °F 35.7 °F 30.12 in NW 4.4 mph 10.4 mph 77 % 0.00 in 0.0 W/m2 CLR
01:43 42.4 °F 35.7 °F 30.12 in NW 0.4 mph 4.6 mph 77 % 0.00 in 0.0 W/m2 CLR
01:48 42.4 °F 35.7 °F 30.11 in WNW 1.9 mph 3.5 mph 77 % 0.00 in 0.0 W/m2 CLR
01:53 42.3 °F 35.6 °F 30.12 in West 1.7 mph 5.8 mph 77 % 0.00 in 0.0 W/m2 CLR
01:58 42.3 °F 35.6 °F 30.12 in WNW 2.5 mph 7.0 mph 77 % 0.00 in 0.0 W/m2 CLR
02:03 42.3 °F 35.6 °F 30.12 in NW 3.9 mph 8.1 mph 77 % 0.00 in 0.0 W/m2 CLR
02:09 42.2 °F 35.5 °F 30.12 in NW 4.0 mph 4.0 mph 77 % 0.00 in 0.0 W/m2 CLR
02:14 42.1 °F 35.4 °F 30.12 in NW 0.7 mph 9.2 mph 77 % 0.00 in 0.0 W/m2 CLR
02:19 42.0 °F 35.3 °F 30.12 in WNW 1.8 mph 11.5 mph 77 % 0.00 in 0.0 W/m2 CLR
02:24 41.8 °F 35.1 °F 30.12 in NW 2.2 mph 8.1 mph 77 % 0.00 in 0.0 W/m2 CLR
02:29 41.6 °F 34.9 °F 30.12 in NW 1.5 mph 4.6 mph 77 % 0.00 in 0.0 W/m2 CLR
02:34 41.4 °F 34.7 °F 30.12 in WNW 1.7 mph 8.1 mph 77 % 0.00 in 0.0 W/m2 CLR
02:39 41.3 °F 34.6 °F 30.13 in NW 3.4 mph 3.5 mph 77 % 0.00 in 0.0 W/m2 CLR
02:44 41.1 °F 34.4 °F 30.12 in WNW 3.5 mph 11.5 mph 77 % 0.00 in 0.0 W/m2 CLR
02:49 40.9 °F 34.2 °F 30.12 in WNW 3.5 mph 11.5 mph 77 % 0.00 in 0.0 W/m2 CLR
02:54 40.7 °F 34.0 °F 30.13 in NW 6.5 mph 10.4 mph 77 % 0.00 in 0.0 W/m2 CLR
02:59 40.7 °F 34.0 °F 30.13 in WNW 4.0 mph 8.1 mph 77 % 0.00 in 0.0 W/m2 CLR
03:04 40.6 °F 33.6 °F 30.13 in NW 5.1 mph 9.2 mph 76 % 0.00 in 0.0 W/m2 CLR
03:09 40.5 °F 33.5 °F 30.12 in NW 4.4 mph 6.9 mph 76 % 0.00 in 0.0 W/m2 CLR
03:14 40.4 °F 33.4 °F 30.13 in NW 4.4 mph 6.9 mph 76 % 0.00 in 0.0 W/m2 CLR
03:19 40.4 °F 33.4 °F 30.12 in NNW 5.0 mph 11.5 mph 76 % 0.00 in 0.0 W/m2 CLR
03:24 40.4 °F 33.4 °F 30.12 in NW 5.3 mph 9.2 mph 76 % 0.00 in 0.0 W/m2 CLR
03:29 40.3 °F 33.3 °F 30.12 in NW 4.6 mph 8.1 mph 76 % 0.00 in 0.0 W/m2 CLR
03:34 40.2 °F 33.2 °F 30.13 in NW 2.4 mph 9.0 mph 76 % 0.00 in 0.0 W/m2 CLR
03:39 40.2 °F 33.2 °F 30.13 in WNW 1.2 mph 4.6 mph 76 % 0.00 in 0.0 W/m2 CLR
03:40 40.2 °F 33.2 °F 30.13 in WNW 0.1 mph 3.0 mph 76 % 0.00 in 0.0 W/m2 CLR
03:45 40.2 °F 33.2 °F 30.13 in WNW 0.1 mph 3.5 mph 76 % 0.00 in 0.0 W/m2 CLR
03:50 40.1 °F 33.1 °F 30.13 in WNW 0.1 mph 1.2 mph 76 % 0.00 in 0.0 W/m2 CLR
03:55 40.0 °F 33.0 °F 30.13 in NW 5.1 mph 11.5 mph 76 % 0.00 in 0.0 W/m2 CLR
04:00 39.9 °F 32.9 °F 30.13 in Calm     76 % 0.00 in 0.0 W/m2 CLR
04:05 39.9 °F 32.9 °F 30.13 in WNW 0.6 mph 6.9 mph 76 % 0.00 in 0.0 W/m2 CLR
04:10 39.8 °F 32.8 °F 30.13 in NW 1.7 mph 5.0 mph 76 % 0.00 in 0.0 W/m2 CLR
04:15 39.7 °F 32.8 °F 30.14 in NW 2.0 mph 4.0 mph 76 % 0.00 in 0.0 W/m2 CLR
04:20 39.5 °F 32.6 °F 30.14 in WNW 2.8 mph 4.6 mph 76 % 0.00 in 0.0 W/m2 CLR
04:25 39.5 °F 32.6 °F 30.14 in West 1.6 mph 6.9 mph 76 % 0.00 in 0.0 W/m2 CLR
04:30 39.5 °F 32.9 °F 30.14 in NW 1.3 mph 4.6 mph 77 % 0.00 in 0.0 W/m2 CLR
04:35 39.4 °F 32.8 °F 30.14 in Calm   2.3 mph 77 % 0.00 in 0.0 W/m2 CLR
04:40 39.3 °F 32.7 °F 30.14 in NW 1.3 mph 3.5 mph 77 % 0.00 in 0.0 W/m2 CLR
04:45 39.3 °F 33.0 °F 30.14 in NW 0.9 mph 3.5 mph 78 % 0.00 in 0.0 W/m2 CLR
04:51 39.3 °F 33.0 °F 30.14 in WNW 2.6 mph 8.1 mph 78 % 0.00 in 0.0 W/m2 CLR
04:56 39.3 °F 33.0 °F 30.14 in WNW 0.1 mph 3.5 mph 78 % 0.00 in 0.0 W/m2 CLR
05:01 39.3 °F 33.0 °F 30.15 in WNW 0.8 mph 2.3 mph 78 % 0.00 in 0.0 W/m2 CLR
05:06 39.2 °F 32.9 °F 30.15 in WNW 1.4 mph 3.5 mph 78 % 0.00 in 0.0 W/m2 CLR
05:11 39.2 °F 32.9 °F 30.15 in WNW 1.8 mph 6.9 mph 78 % 0.00 in 0.0 W/m2 CLR
05:16 39.1 °F 32.8 °F 30.15 in WNW 1.5 mph 4.0 mph 78 % 0.00 in 0.0 W/m2 CLR
05:21 39.0 °F 32.7 °F 30.15 in West 0.5 mph 6.0 mph 78 % 0.00 in 0.0 W/m2 CLR
05:26 38.9 °F 32.9 °F 30.15 in Calm     79 % 0.00 in 0.0 W/m2 CLR
05:31 38.7 °F 32.7 °F 30.15 in Calm     79 % 0.00 in 0.0 W/m2 CLR
05:36 38.1 °F 32.2 °F 30.15 in Calm     79 % 0.00 in 0.0 W/m2 CLR
05:41 37.5 °F 31.9 °F 30.15 in Calm     80 % 0.00 in 0.0 W/m2 CLR
05:46 36.7 °F 31.4 °F 30.15 in Calm     81 % 0.00 in 0.0 W/m2 CLR
05:51 36.2 °F 31.2 °F 30.16 in Calm     82 % 0.00 in 0.0 W/m2 CLR
05:56 35.9 °F 31.2 °F 30.16 in Calm     83 % 0.00 in 0.0 W/m2 CLR
06:01 35.7 °F 31.0 °F 30.16 in Calm     83 % 0.00 in 0.0 W/m2 CLR
06:06 35.6 °F 31.2 °F 30.16 in Calm     84 % 0.00 in 0.0 W/m2 CLR
06:11 35.5 °F 31.1 °F 30.17 in Calm     84 % 0.00 in 0.0 W/m2 CLR
06:16 35.2 °F 31.1 °F 30.17 in Calm     85 % 0.00 in 0.0 W/m2 CLR
06:21 34.9 °F 30.8 °F 30.17 in Calm     85 % 0.00 in 0.0 W/m2 CLR
06:26 34.7 °F 30.7 °F 30.17 in Calm     85 % 0.00 in 0.0 W/m2 CLR
06:31 34.6 °F 30.8 °F 30.18 in Calm     86 % 0.00 in 0.0 W/m2 CLR
06:36 34.6 °F 30.8 °F 30.18 in Calm     86 % 0.00 in 0.0 W/m2 CLR
06:41 34.2 °F 30.4 °F 30.18 in Calm     86 % 0.00 in 0.0 W/m2 CLR
06:46 34.0 °F 30.3 °F 30.18 in Calm     86 % 0.00 in 5.0 W/m2 CLR
06:51 34.1 °F 30.6 °F 30.18 in Calm     87 % 0.00 in 7.0 W/m2 CLR
06:56 34.4 °F 30.9 °F 30.19 in Calm     87 % 0.00 in 11.0 W/m2 CLR
07:01 34.6 °F 31.1 °F 30.19 in Calm     87 % 0.00 in 12.0 W/m2 CLR
07:06 34.7 °F 31.2 °F 30.19 in Calm     87 % 0.00 in 14.0 W/m2 CLR
07:11 35.7 °F 32.5 °F 30.19 in West 0.4 mph 2.3 mph 88 % 0.00 in 18.0 W/m2 CLR
07:16 36.9 °F 33.4 °F 30.20 in West 0.9 mph 3.5 mph 87 % 0.00 in 19.0 W/m2 CLR
07:21 37.8 °F 34.0 °F 30.20 in WNW 1.2 mph 8.1 mph 86 % 0.00 in 25.0 W/m2 CLR
07:26 38.3 °F 33.9 °F 30.20 in WNW 3.4 mph 8.1 mph 84 % 0.00 in 32.0 W/m2 CLR
07:31 38.6 °F 33.9 °F 30.20 in West 2.4 mph 3.5 mph 83 % 0.00 in 39.0 W/m2 FEW
07:36 38.8 °F 33.8 °F 30.20 in WNW 2.0 mph 8.1 mph 82 % 0.00 in 46.0 W/m2 SCT
07:41 38.9 °F 33.6 °F 30.20 in West 3.7 mph 8.1 mph 81 % 0.00 in 70.0 W/m2 FEW
07:46 39.0 °F 33.7 °F 30.20 in WNW 3.8 mph 6.9 mph 81 % 0.00 in 40.0 W/m2 BKN
07:51 39.1 °F 33.5 °F 30.19 in WNW 2.5 mph 5.8 mph 80 % 0.00 in 67.0 W/m2 SCT
07:56 39.3 °F 33.6 °F 30.20 in SW 3.5 mph 4.0 mph 80 % 0.00 in 105.0 W/m2 FEW
08:01 39.5 °F 33.5 °F 30.20 in West 2.4 mph 6.0 mph 79 % 0.00 in 81.0 W/m2 SCT
08:06 39.8 °F 33.8 °F 30.20 in WSW 1.0 mph 3.5 mph 79 % 0.00 in 97.0 W/m2 SCT
08:11 39.9 °F 33.6 °F 30.20 in West 0.9 mph 3.5 mph 78 % 0.00 in 130.0 W/m2 SCT
08:16 40.2 °F 33.9 °F 30.20 in NW 8.3 mph 11.5 mph 78 % 0.00 in 135.0 W/m2 FEW
08:21 41.2 °F 34.5 °F 30.20 in WNW 3.6 mph 9.2 mph 77 % 0.00 in 130.0 W/m2 FEW
08:26 41.9 °F 34.6 °F 30.19 in NW 6.4 mph 10.0 mph 75 % 0.00 in 229.0 W/m2 CLR
08:31 42.0 °F 34.0 °F 30.20 in WNW 2.1 mph 5.8 mph 73 % 0.00 in 199.0 W/m2 CLR
08:36 42.5 °F 34.5 °F 30.19 in NW 1.8 mph 8.0 mph 73 % 0.00 in 197.0 W/m2 FEW
08:41 43.1 °F 34.7 °F 30.20 in NW 4.9 mph 9.2 mph 72 % 0.00 in 199.0 W/m2 CLR
08:46 43.4 °F 35.0 °F 30.20 in WSW 1.9 mph 6.9 mph 72 % 0.00 in 369.0 W/m2 CLR
08:51 43.9 °F 34.7 °F 30.20 in NW 0.6 mph 4.0 mph 70 % 0.00 in 396.0 W/m2 CLR
08:56 44.1 °F 34.6 °F 30.20 in NW 7.0 mph 11.5 mph 69 % 0.00 in 417.0 W/m2 CLR
09:01 44.4 °F 34.5 °F 30.20 in WNW 3.3 mph 9.2 mph 68 % 0.00 in 434.0 W/m2 CLR
09:06 44.9 °F 35.0 °F 30.20 in West 1.2 mph 3.5 mph 68 % 0.00 in 454.0 W/m2 CLR
09:12 45.2 °F 34.9 °F 30.21 in WNW 5.0 mph 8.1 mph 67 % 0.00 in 466.0 W/m2 CLR
09:17 45.8 °F 35.1 °F 30.21 in West 4.7 mph 11.5 mph 66 % 0.00 in 487.0 W/m2 CLR
09:22 45.7 °F 35.0 °F 30.21 in West 2.0 mph 6.0 mph 66 % 0.00 in 503.0 W/m2 CLR
09:27 45.8 °F 34.7 °F 30.21 in WNW 4.8 mph 13.8 mph 65 % 0.00 in 522.0 W/m2 CLR
09:32 46.5 °F 35.4 °F 30.21 in NW 4.3 mph 8.1 mph 65 % 0.00 in 536.0 W/m2 CLR
09:37 47.0 °F 35.8 °F 30.21 in WNW 3.3 mph 8.1 mph 65 % 0.00 in 554.0 W/m2 CLR
09:42 46.7 °F 35.2 °F 30.21 in West 2.3 mph 8.1 mph 64 % 0.00 in 568.0 W/m2 CLR
09:47 47.2 °F 34.8 °F 30.21 in WNW 0.5 mph 3.5 mph 62 % 0.00 in 584.0 W/m2 CLR
09:52 47.8 °F 35.4 °F 30.21 in West 2.4 mph 5.8 mph 62 % 0.00 in 599.0 W/m2 CLR
09:57 47.9 °F 34.7 °F 30.21 in WNW 2.9 mph 8.1 mph 60 % 0.00 in 617.0 W/m2 CLR
10:02 48.5 °F 35.2 °F 30.21 in North 0.1 mph 3.5 mph 60 % 0.00 in 633.0 W/m2 CLR
10:07 49.1 °F 34.5 °F 30.21 in NNW 4.1 mph 10.4 mph 57 % 0.00 in 645.0 W/m2 CLR
10:12 49.0 °F 33.5 °F 30.21 in WNW 5.0 mph 10.0 mph 55 % 0.00 in 659.0 W/m2 CLR
10:17 49.1 °F 33.6 °F 30.21 in West 1.7 mph 6.9 mph 55 % 0.00 in 671.0 W/m2 CLR
10:22 49.0 °F 33.5 °F 30.21 in West 5.0 mph 9.2 mph 55 % 0.00 in 687.0 W/m2 CLR
10:27 49.2 °F 34.2 °F 30.21 in West 2.5 mph 8.1 mph 56 % 0.00 in 698.0 W/m2 CLR
10:32 49.8 °F 34.3 °F 30.21 in West 0.3 mph 10.4 mph 55 % 0.00 in 712.0 W/m2 CLR
10:37 49.9 °F 33.4 °F 30.21 in WNW 6.7 mph 10.4 mph 53 % 0.00 in 724.0 W/m2 CLR
10:42 50.4 °F 34.4 °F 30.21 in NNW 3.0 mph 6.9 mph 54 % 0.00 in 737.0 W/m2 CLR
10:47 50.6 °F 34.1 °F 30.21 in NNW 1.3 mph 3.5 mph 53 % 0.00 in 747.0 W/m2 CLR
10:52 51.2 °F 33.7 °F 30.21 in WNW 3.7 mph 8.1 mph 51 % 0.00 in 761.0 W/m2 CLR
10:57 51.1 °F 33.6 °F 30.21 in WNW 7.6 mph 11.5 mph 51 % 0.00 in 773.0 W/m2 CLR
11:02 52.3 °F 34.2 °F 30.21 in NW 3.4 mph 8.1 mph 50 % 0.00 in 782.0 W/m2 CLR
11:07 52.5 °F 33.9 °F 30.21 in WNW 8.0 mph 13.8 mph 49 % 0.00 in 795.0 W/m2 CLR
11:12 52.7 °F 33.5 °F 30.20 in NW 9.0 mph 12.7 mph 48 % 0.00 in 802.0 W/m2 CLR
11:17 52.8 °F 32.6 °F 30.20 in WNW 2.8 mph 11.0 mph 46 % 0.00 in 812.0 W/m2 CLR
11:22 53.0 °F 32.8 °F 30.20 in NW 5.6 mph 11.5 mph 46 % 0.00 in 819.0 W/m2 CLR
11:27 53.8 °F 32.4 °F 30.20 in WNW 9.6 mph 13.0 mph 44 % 0.00 in 826.0 W/m2 CLR
11:32 53.5 °F 33.7 °F 30.20 in NW 1.9 mph 3.5 mph 47 % 0.00 in 835.0 W/m2 CLR
11:37 54.7 °F 32.6 °F 30.20 in NW 3.6 mph 6.9 mph 43 % 0.00 in 847.0 W/m2 CLR
11:42 54.6 °F 31.9 °F 30.19 in West 7.6 mph 13.8 mph 42 % 0.00 in 849.0 W/m2 CLR
11:47 54.1 °F 32.1 °F 30.19 in WNW 8.8 mph 13.8 mph 43 % 0.00 in 854.0 W/m2 CLR
11:52 54.7 °F 33.8 °F 30.19 in NW 6.1 mph 11.5 mph 45 % 0.00 in 863.0 W/m2 CLR
11:57 55.4 °F 33.8 °F 30.18 in NNW 7.6 mph 11.5 mph 44 % 0.00 in 874.0 W/m2 CLR
12:02 55.8 °F 33.0 °F 30.18 in NW 8.2 mph 12.0 mph 42 % 0.00 in 877.0 W/m2 CLR
12:07 56.1 °F 33.9 °F 30.18 in North 3.1 mph 4.6 mph 43 % 0.00 in 881.0 W/m2 CLR
12:12 56.0 °F 32.6 °F 30.18 in NW 7.8 mph 11.5 mph 41 % 0.00 in 884.0 W/m2 CLR
12:17 55.8 °F 31.8 °F 30.18 in WNW 4.5 mph 6.9 mph 40 % 0.00 in 888.0 W/m2 CLR
12:22 56.2 °F 32.8 °F 30.17 in NW 4.8 mph 8.1 mph 41 % 0.00 in 891.0 W/m2 CLR
12:27 56.7 °F 31.4 °F 30.17 in West 5.3 mph 11.5 mph 38 % 0.00 in 891.0 W/m2 CLR
12:32 55.9 °F 32.5 °F 30.17 in West 2.6 mph 5.8 mph 41 % 0.00 in 896.0 W/m2 CLR
12:37 56.5 °F 31.2 °F 30.17 in WNW 4.5 mph 11.5 mph 38 % 0.00 in 898.0 W/m2 CLR
12:42 57.4 °F 33.3 °F 30.17 in WNW 8.9 mph 12.7 mph 40 % 0.00 in 902.0 W/m2 CLR
12:47 57.2 °F 32.4 °F 30.16 in WSW 5.8 mph 9.2 mph 39 % 0.00 in 900.0 W/m2 CLR
12:52 56.8 °F 30.1 °F 30.16 in NW 7.4 mph 12.7 mph 36 % 0.00 in 907.0 W/m2 CLR
12:57 57.8 °F 31.0 °F 30.16 in West 3.7 mph 8.1 mph 36 % 0.00 in 904.0 W/m2 CLR
13:02 58.0 °F 32.5 °F 30.16 in NW 4.7 mph 11.5 mph 38 % 0.00 in 904.0 W/m2 CLR
13:07 57.7 °F 31.6 °F 30.15 in WSW 4.3 mph 12.7 mph 37 % 0.00 in 904.0 W/m2 CLR
13:12 58.1 °F 31.9 °F 30.15 in West 8.5 mph 13.8 mph 37 % 0.00 in 904.0 W/m2 CLR
13:17 57.9 °F 32.4 °F 30.15 in West 7.1 mph 11.5 mph 38 % 0.00 in 904.0 W/m2 CLR
13:22 58.9 °F 32.7 °F 30.15 in NW 2.4 mph 10.4 mph 37 % 0.00 in 902.0 W/m2 CLR
13:28 58.9 °F 34.0 °F 30.15 in WNW 1.1 mph 6.9 mph 39 % 0.00 in 900.0 W/m2 CLR
13:33 58.4 °F 32.2 °F 30.15 in NW 2.0 mph 6.0 mph 37 % 0.00 in 900.0 W/m2 CLR
13:38 58.8 °F 32.6 °F 30.15 in NW 5.7 mph 16.1 mph 37 % 0.00 in 904.0 W/m2 CLR
13:43 59.5 °F 34.5 °F 30.15 in NW 5.4 mph 11.5 mph 39 % 0.00 in 886.0 W/m2 CLR
13:48 58.3 °F 32.1 °F 30.15 in WNW 1.0 mph 3.5 mph 37 % 0.00 in 997.0 W/m2 CLR
13:53 58.3 °F 33.4 °F 30.14 in WSW 5.0 mph 8.1 mph 39 % 0.00 in 981.0 W/m2 CLR
13:58 59.4 °F 34.4 °F 30.14 in NW 6.8 mph 11.5 mph 39 % 0.00 in 935.0 W/m2 CLR
14:03 59.8 °F 33.5 °F 30.14 in NW 4.2 mph 10.4 mph 37 % 0.00 in 958.0 W/m2 CLR
14:08 59.9 °F 33.5 °F 30.14 in WNW 7.8 mph 11.5 mph 37 % 0.00 in 953.0 W/m2 CLR
14:13 59.0 °F 32.1 °F 30.13 in NW 7.2 mph 11.5 mph 36 % 0.00 in 912.0 W/m2 CLR
14:18 60.0 °F 33.6 °F 30.13 in West 2.6 mph 4.6 mph 37 % 0.00 in 914.0 W/m2 CLR
14:23 59.3 °F 32.3 °F 30.12 in WSW 4.5 mph 10.4 mph 36 % 0.00 in 802.0 W/m2 CLR
14:28 59.8 °F 33.5 °F 30.12 in West 6.3 mph 6.9 mph 37 % 0.00 in 847.0 W/m2 CLR
14:33 60.2 °F 33.1 °F 30.12 in West 11.2 mph 12.0 mph 36 % 0.00 in 826.0 W/m2 CLR
14:38 60.9 °F 34.4 °F 30.12 in WNW 5.2 mph 10.4 mph 37 % 0.00 in 816.0 W/m2 CLR
14:43 61.6 °F 34.4 °F 30.12 in NW 3.3 mph 15.0 mph 36 % 0.00 in 747.0 W/m2 CLR
14:48 61.6 °F 33.7 °F 30.12 in West 7.6 mph 12.7 mph 35 % 0.00 in 800.0 W/m2 CLR
14:53 61.0 °F 34.5 °F 30.12 in NW 9.4 mph 11.5 mph 37 % 0.00 in 835.0 W/m2 CLR
14:58 60.7 °F 32.1 °F 30.11 in NW 3.9 mph 10.4 mph 34 % 0.00 in 786.0 W/m2 CLR
15:03 60.8 °F 33.0 °F 30.11 in NW 7.9 mph 12.0 mph 35 % 0.00 in 779.0 W/m2 CLR
15:08 61.3 °F 34.8 °F 30.11 in North 8.1 mph 11.5 mph 37 % 0.00 in 800.0 W/m2 CLR
15:13 60.8 °F 33.0 °F 30.11 in WNW 4.3 mph 9.2 mph 35 % 0.00 in 798.0 W/m2 CLR
15:18 60.6 °F 32.8 °F 30.11 in WNW 6.3 mph 9.2 mph 35 % 0.00 in 287.0 W/m2 FEW
15:23 60.5 °F 33.4 °F 30.11 in NW 3.1 mph 6.9 mph 36 % 0.00 in 763.0 W/m2 CLR
15:28 61.4 °F 33.5 °F 30.11 in West 5.5 mph 13.8 mph 35 % 0.00 in 689.0 W/m2 CLR
15:33 61.0 °F 33.1 °F 30.10 in NW 5.8 mph 11.5 mph 35 % 0.00 in 483.0 W/m2 CLR
15:38 60.8 °F 33.7 °F 30.10 in WNW 9.4 mph 11.5 mph 36 % 0.00 in 199.0 W/m2 BKN
15:43 60.1 °F 32.3 °F 30.10 in West 8.3 mph 12.7 mph 35 % 0.00 in 703.0 W/m2 BKN
15:48 60.0 °F 33.6 °F 30.10 in NW 2.5 mph 5.8 mph 37 % 0.00 in 710.0 W/m2 CLR
15:53 61.2 °F 33.3 °F 30.10 in WNW 9.3 mph 12.7 mph 35 % 0.00 in 139.0 W/m2 OVC
15:58 61.5 °F 34.3 °F 30.10 in West 2.6 mph 7.0 mph 36 % 0.00 in 670.0 W/m2 CLR
16:03 62.4 °F 34.4 °F 30.09 in WNW 5.5 mph 9.2 mph 35 % 0.00 in 661.0 W/m2 CLR
16:08 62.7 °F 34.6 °F 30.10 in WNW 8.1 mph 13.8 mph 35 % 0.00 in 664.0 W/m2 CLR
16:13 62.7 °F 33.2 °F 30.10 in West 8.6 mph 12.0 mph 33 % 0.00 in 566.0 W/m2 CLR
16:18 61.2 °F 32.6 °F 30.10 in NW 9.8 mph 13.8 mph 34 % 0.00 in 589.0 W/m2 CLR
16:23 61.3 °F 33.4 °F 30.10 in WSW 9.0 mph 12.7 mph 35 % 0.00 in 445.0 W/m2 CLR
16:28 61.0 °F 32.4 °F 30.10 in WNW 3.5 mph 8.1 mph 34 % 0.00 in 462.0 W/m2 CLR
16:33 61.1 °F 33.2 °F 30.10 in NW 2.9 mph 5.8 mph 35 % 0.00 in 434.0 W/m2 CLR
16:38 61.2 °F 32.6 °F 30.10 in WNW 9.3 mph 15.0 mph 34 % 0.00 in 492.0 W/m2 CLR
16:43 61.8 °F 33.8 °F 30.10 in NNW 11.8 mph 17.3 mph 35 % 0.00 in 496.0 W/m2 CLR
16:48 62.3 °F 33.6 °F 30.10 in West 7.4 mph 11.5 mph 34 % 0.00 in 438.0 W/m2 CLR
16:53 62.3 °F 34.3 °F 30.09 in NW 8.1 mph 11.5 mph 35 % 0.00 in 476.0 W/m2 CLR
16:58 62.1 °F 32.6 °F 30.09 in WNW 4.7 mph 9.0 mph 33 % 0.00 in 471.0 W/m2 CLR
17:03 61.8 °F 33.1 °F 30.09 in West 7.9 mph 10.4 mph 34 % 0.00 in 468.0 W/m2 CLR
17:08 61.9 °F 33.2 °F 30.10 in West 13.2 mph 18.4 mph 34 % 0.00 in 468.0 W/m2 CLR
17:13 61.6 °F 32.9 °F 30.09 in NW 6.6 mph 12.0 mph 34 % 0.00 in 336.0 W/m2 CLR
17:18 61.9 °F 33.2 °F 30.09 in NW 3.9 mph 8.1 mph 34 % 0.00 in 396.0 W/m2 CLR
17:23 62.1 °F 34.1 °F 30.09 in West 5.8 mph 13.0 mph 35 % 0.00 in 353.0 W/m2 CLR
17:28 61.5 °F 32.8 °F 30.09 in WNW 4.4 mph 6.9 mph 34 % 0.00 in 346.0 W/m2 FEW
17:33 61.1 °F 33.2 °F 30.09 in West 4.4 mph 8.1 mph 35 % 0.00 in 178.0 W/m2 SCT
17:38 61.0 °F 33.1 °F 30.09 in West 5.0 mph 10.0 mph 35 % 0.00 in 359.0 W/m2 CLR
17:43 61.1 °F 33.2 °F 30.08 in NW 5.8 mph 8.1 mph 35 % 0.00 in 262.0 W/m2 CLR
17:48 61.5 °F 33.6 °F 30.08 in NNW 2.4 mph 9.0 mph 35 % 0.00 in 316.0 W/m2 FEW
17:53 61.5 °F 34.3 °F 30.08 in NW 2.4 mph 5.8 mph 36 % 0.00 in 102.0 W/m2 BKN
17:58 61.2 °F 33.3 °F 30.08 in WNW 8.6 mph 11.5 mph 35 % 0.00 in 104.0 W/m2 BKN
18:03 61.2 °F 34.0 °F 30.08 in West 4.9 mph 9.2 mph 36 % 0.00 in 160.0 W/m2 FEW
18:08 61.1 °F 33.2 °F 30.08 in WNW 5.2 mph 9.2 mph 35 % 0.00 in 125.0 W/m2 FEW
18:13 60.9 °F 33.0 °F 30.08 in WNW 2.8 mph 6.9 mph 35 % 0.00 in 107.0 W/m2 FEW
18:18 60.9 °F 33.0 °F 30.08 in WNW 3.1 mph 6.9 mph 35 % 0.00 in 72.0 W/m2 BKN
18:23 60.6 °F 34.2 °F 30.08 in WNW 1.7 mph 3.5 mph 37 % 0.00 in 58.0 W/m2 BKN
18:28 60.3 °F 34.6 °F 30.08 in SW 2.4 mph 5.8 mph 38 % 0.00 in 58.0 W/m2 BKN
18:33 60.1 °F 34.4 °F 30.08 in WNW 2.4 mph 6.0 mph 38 % 0.00 in 95.0 W/m2 FEW
18:38 60.1 °F 34.4 °F 30.08 in Calm   2.3 mph 38 % 0.00 in 47.0 W/m2 BKN
18:43 60.2 °F 33.8 °F 30.08 in West 3.6 mph 8.1 mph 37 % 0.00 in 70.0 W/m2 FEW
18:48 60.3 °F 34.6 °F 30.08 in West 0.4 mph 2.3 mph 38 % 0.00 in 40.0 W/m2 BKN
18:53 60.2 °F 34.5 °F 30.08 in West 0.7 mph 3.5 mph 38 % 0.00 in 44.0 W/m2 SCT
18:58 60.2 °F 34.5 °F 30.08 in NW 2.5 mph 7.0 mph 38 % 0.00 in 33.0 W/m2 SCT
19:03 60.2 °F 33.8 °F 30.08 in NW 1.3 mph 6.9 mph 37 % 0.00 in 30.0 W/m2 SCT
19:08 60.2 °F 33.8 °F 30.08 in WSW 1.0 mph 4.0 mph 37 % 0.00 in 19.0 W/m2 SCT
19:13 60.1 °F 33.7 °F 30.08 in West 2.4 mph 5.8 mph 37 % 0.00 in 14.0 W/m2 SCT
19:18 60.0 °F 34.3 °F 30.08 in Calm     38 % 0.00 in 11.0 W/m2 SCT
19:23 59.6 °F 34.6 °F 30.07 in West 0.2 mph   39 % 0.00 in 5.0 W/m2 FEW
19:28 59.4 °F 33.8 °F 30.08 in WNW 3.1 mph 8.1 mph 38 % 0.00 in 0.0 W/m2 FEW
19:33 59.4 °F 33.8 °F 30.08 in WNW 4.2 mph 8.1 mph 38 % 0.00 in 0.0 W/m2 FEW
19:38 59.1 °F 33.5 °F 30.08 in WNW 2.0 mph 3.5 mph 38 % 0.00 in 0.0 W/m2 FEW
19:43 58.8 °F 33.9 °F 30.08 in Calm   1.2 mph 39 % 0.00 in 0.0 W/m2 FEW
19:48 58.3 °F 33.4 °F 30.08 in Calm     39 % 0.00 in 0.0 W/m2 FEW
19:53 57.8 °F 33.6 °F 30.08 in Calm     40 % 0.00 in 0.0 W/m2 FEW
19:58 57.2 °F 33.7 °F 30.08 in NW 0.1 mph 1.0 mph 41 % 0.00 in 0.0 W/m2 FEW
20:03 56.7 °F 33.8 °F 30.09 in Calm     42 % 0.00 in 0.0 W/m2 FEW
20:09 56.3 °F 34.1 °F 30.09 in Calm     43 % 0.00 in 0.0 W/m2 FEW
20:14 55.9 °F 33.7 °F 30.09 in Calm     43 % 0.00 in 0.0 W/m2 FEW
20:19 55.8 °F 34.8 °F 30.09 in Calm     45 % 0.00 in 0.0 W/m2 FEW
20:24 55.1 °F 34.1 °F 30.09 in Calm     45 % 0.00 in 0.0 W/m2 FEW
20:29 54.8 °F 33.8 °F 30.09 in Calm     45 % 0.00 in 0.0 W/m2 FEW
20:34 54.8 °F 33.8 °F 30.10 in Calm     45 % 0.00 in 0.0 W/m2 FEW
20:39 54.8 °F 33.8 °F 30.10 in Calm     45 % 0.00 in 0.0 W/m2 FEW
20:44 54.1 °F 33.8 °F 30.10 in Calm     46 % 0.00 in 0.0 W/m2 FEW
20:49 53.9 °F 33.6 °F 30.10 in Calm     46 % 0.00 in 0.0 W/m2 FEW
20:54 53.5 °F 33.7 °F 30.11 in Calm     47 % 0.00 in 0.0 W/m2 FEW
20:59 53.1 °F 33.9 °F 30.11 in Calm     48 % 0.00 in 0.0 W/m2 FEW
21:04 52.8 °F 34.2 °F 30.11 in Calm     49 % 0.00 in 0.0 W/m2 FEW
21:14 52.1 °F 35.0 °F 30.12 in Calm     52 % 0.00 in 0.0 W/m2 FEW
21:19 51.4 °F 34.8 °F 30.12 in Calm     53 % 0.00 in 0.0 W/m2 FEW
21:20 51.3 °F 35.2 °F 30.12 in Calm     54 % 0.00 in 0.0 W/m2 FEW
21:25 50.8 °F 35.7 °F 30.12 in Calm     56 % 0.00 in 0.0 W/m2 FEW
21:30 50.3 °F 35.6 °F 30.12 in Calm     57 % 0.00 in 0.0 W/m2 FEW
21:35 50.2 °F 36.0 °F 30.12 in Calm     58 % 0.00 in 0.0 W/m2 FEW
21:40 49.8 °F 35.6 °F 30.12 in Calm     58 % 0.00 in 0.0 W/m2 FEW
21:45 49.4 °F 35.2 °F 30.12 in Calm     58 % 0.00 in 0.0 W/m2 FEW
21:50 49.0 °F 35.3 °F 30.12 in Calm     59 % 0.00 in 0.0 W/m2 FEW
21:55 48.8 °F 35.5 °F 30.12 in Calm     60 % 0.00 in 0.0 W/m2 FEW
22:00 48.7 °F 35.8 °F 30.12 in Calm     61 % 0.00 in 0.0 W/m2 FEW
22:05 48.4 °F 36.0 °F 30.12 in Calm     62 % 0.00 in 0.0 W/m2 FEW
22:10 47.9 °F 35.9 °F 30.12 in Calm     63 % 0.00 in 0.0 W/m2 FEW
22:15 47.3 °F 36.1 °F 30.12 in Calm     65 % 0.00 in 0.0 W/m2 FEW
22:20 47.1 °F 36.3 °F 30.12 in Calm     66 % 0.00 in 0.0 W/m2 FEW
22:25 46.8 °F 36.0 °F 30.12 in Calm     66 % 0.00 in 0.0 W/m2 FEW
22:30 46.7 °F 36.3 °F 30.12 in Calm     67 % 0.00 in 0.0 W/m2 FEW
22:40 46.2 °F 36.2 °F 30.12 in Calm     68 % 0.00 in 0.0 W/m2 FEW
22:45 46.5 °F 36.5 °F 30.12 in Calm     68 % 0.00 in 0.0 W/m2 FEW
22:50 46.4 °F 36.4 °F 30.12 in Calm     68 % 0.00 in 0.0 W/m2 FEW
23:00 45.5 °F 36.3 °F 30.12 in Calm     70 % 0.00 in 0.0 W/m2 FEW
23:05 45.2 °F 36.0 °F 30.13 in Calm     70 % 0.00 in 0.0 W/m2 FEW
23:10 44.9 °F 36.1 °F 30.12 in Calm     71 % 0.00 in 0.0 W/m2 FEW
23:15 44.9 °F 36.1 °F 30.12 in Calm     71 % 0.00 in 0.0 W/m2 FEW
23:20 44.7 °F 35.9 °F 30.12 in Calm     71 % 0.00 in 0.0 W/m2 FEW
23:25 44.5 °F 36.0 °F 30.12 in Calm     72 % 0.00 in 0.0 W/m2 FEW
23:30 44.4 °F 35.9 °F 30.12 in Calm     72 % 0.00 in 0.0 W/m2 FEW
23:35 44.1 °F 36.0 °F 30.12 in Calm     73 % 0.00 in 0.0 W/m2 FEW
23:40 43.8 °F 35.7 °F 30.12 in Calm     73 % 0.00 in 0.0 W/m2 FEW
23:45 43.7 °F 35.6 °F 30.12 in Calm     73 % 0.00 in 0.0 W/m2 FEW
23:51 43.6 °F 35.9 °F 30.11 in Calm     74 % 0.00 in 0.0 W/m2 FEW
23:56 43.5 °F 35.8 °F 30.11 in Calm     74 % 0.00 in 0.0 W/m2 FEW
Air Products Campus Weather
Compliments of Weather Underground - 3.5 mb